sensor_id;sensor_type;location;lat;lon;timestamp;P1;durP1;ratioP1;P2;durP2;ratioP2
51006;SDS011;37034;47.886;-3.904;2024-03-08T00:00:14;6.20;;;2.53;;
51006;SDS011;37034;47.886;-3.904;2024-03-08T00:02:43;6.25;;;2.42;;
51006;SDS011;37034;47.886;-3.904;2024-03-08T00:05:13;4.68;;;2.00;;
51006;SDS011;37034;47.886;-3.904;2024-03-08T00:07:40;4.78;;;2.13;;
51006;SDS011;37034;47.886;-3.904;2024-03-08T00:12:36;5.90;;;2.42;;
51006;SDS011;37034;47.886;-3.904;2024-03-08T00:15:11;4.85;;;2.42;;
51006;SDS011;37034;47.886;-3.904;2024-03-08T00:17:39;4.65;;;1.90;;
51006;SDS011;37034;47.886;-3.904;2024-03-08T00:20:05;4.50;;;2.13;;
51006;SDS011;37034;47.886;-3.904;2024-03-08T00:22:37;4.35;;;2.20;;
51006;SDS011;37034;47.886;-3.904;2024-03-08T00:25:03;5.47;;;2.58;;
51006;SDS011;37034;47.886;-3.904;2024-03-08T00:27:30;5.45;;;2.42;;
51006;SDS011;37034;47.886;-3.904;2024-03-08T00:29:56;5.20;;;2.10;;
51006;SDS011;37034;47.886;-3.904;2024-03-08T00:32:22;5.93;;;2.22;;
51006;SDS011;37034;47.886;-3.904;2024-03-08T00:34:51;6.53;;;2.45;;
51006;SDS011;37034;47.886;-3.904;2024-03-08T00:37:22;5.43;;;2.40;;
51006;SDS011;37034;47.886;-3.904;2024-03-08T00:39:48;8.88;;;2.97;;
51006;SDS011;37034;47.886;-3.904;2024-03-08T00:42:15;5.15;;;2.53;;
51006;SDS011;37034;47.886;-3.904;2024-03-08T00:44:41;4.63;;;1.75;;
51006;SDS011;37034;47.886;-3.904;2024-03-08T00:47:06;5.47;;;2.50;;
51006;SDS011;37034;47.886;-3.904;2024-03-08T00:49:32;4.93;;;2.60;;
51006;SDS011;37034;47.886;-3.904;2024-03-08T00:51:58;4.77;;;2.37;;
51006;SDS011;37034;47.886;-3.904;2024-03-08T00:54:23;8.37;;;3.00;;
51006;SDS011;37034;47.886;-3.904;2024-03-08T00:56:49;6.33;;;2.50;;
51006;SDS011;37034;47.886;-3.904;2024-03-08T00:59:15;4.70;;;2.60;;
51006;SDS011;37034;47.886;-3.904;2024-03-08T01:01:41;4.50;;;2.88;;
51006;SDS011;37034;47.886;-3.904;2024-03-08T01:04:07;6.53;;;2.77;;
51006;SDS011;37034;47.886;-3.904;2024-03-08T01:06:33;6.57;;;2.65;;
51006;SDS011;37034;47.886;-3.904;2024-03-08T01:08:59;5.72;;;2.63;;
51006;SDS011;37034;47.886;-3.904;2024-03-08T01:11:25;4.50;;;2.40;;
51006;SDS011;37034;47.886;-3.904;2024-03-08T01:13:50;6.90;;;1.93;;
51006;SDS011;37034;47.886;-3.904;2024-03-08T01:16:17;6.72;;;2.58;;
51006;SDS011;37034;47.886;-3.904;2024-03-08T01:18:43;6.27;;;3.00;;
51006;SDS011;37034;47.886;-3.904;2024-03-08T01:21:09;9.70;;;3.22;;
51006;SDS011;37034;47.886;-3.904;2024-03-08T01:23:34;5.43;;;2.77;;
51006;SDS011;37034;47.886;-3.904;2024-03-08T01:26:00;6.97;;;3.07;;
51006;SDS011;37034;47.886;-3.904;2024-03-08T01:28:27;7.88;;;2.85;;
51006;SDS011;37034;47.886;-3.904;2024-03-08T01:30:53;6.75;;;3.10;;
51006;SDS011;37034;47.886;-3.904;2024-03-08T01:33:25;6.10;;;3.00;;
51006;SDS011;37034;47.886;-3.904;2024-03-08T01:35:55;6.38;;;3.10;;
51006;SDS011;37034;47.886;-3.904;2024-03-08T01:38:22;8.48;;;3.35;;
51006;SDS011;37034;47.886;-3.904;2024-03-08T01:40:48;7.65;;;2.95;;
51006;SDS011;37034;47.886;-3.904;2024-03-08T01:43:27;6.38;;;2.83;;
51006;SDS011;37034;47.886;-3.904;2024-03-08T01:46:03;9.27;;;2.83;;
51006;SDS011;37034;47.886;-3.904;2024-03-08T01:48:30;5.43;;;2.72;;
51006;SDS011;37034;47.886;-3.904;2024-03-08T01:50:56;5.78;;;2.58;;
51006;SDS011;37034;47.886;-3.904;2024-03-08T01:53:24;6.38;;;3.10;;
51006;SDS011;37034;47.886;-3.904;2024-03-08T01:55:50;7.68;;;3.20;;
51006;SDS011;37034;47.886;-3.904;2024-03-08T01:58:19;6.88;;;2.63;;
51006;SDS011;37034;47.886;-3.904;2024-03-08T02:00:47;6.25;;;3.05;;
51006;SDS011;37034;47.886;-3.904;2024-03-08T02:03:16;6.60;;;3.03;;
51006;SDS011;37034;47.886;-3.904;2024-03-08T02:05:42;8.73;;;2.93;;
51006;SDS011;37034;47.886;-3.904;2024-03-08T02:08:08;10.10;;;3.05;;
51006;SDS011;37034;47.886;-3.904;2024-03-08T02:10:39;5.32;;;2.83;;
51006;SDS011;37034;47.886;-3.904;2024-03-08T02:13:09;7.35;;;2.95;;
51006;SDS011;37034;47.886;-3.904;2024-03-08T02:15:54;6.32;;;2.83;;
51006;SDS011;37034;47.886;-3.904;2024-03-08T02:18:22;6.72;;;2.90;;
51006;SDS011;37034;47.886;-3.904;2024-03-08T02:20:51;6.43;;;2.95;;
51006;SDS011;37034;47.886;-3.904;2024-03-08T02:23:18;6.45;;;3.03;;
51006;SDS011;37034;47.886;-3.904;2024-03-08T02:25:45;7.95;;;2.88;;
51006;SDS011;37034;47.886;-3.904;2024-03-08T02:28:11;7.05;;;3.45;;
51006;SDS011;37034;47.886;-3.904;2024-03-08T02:33:03;7.30;;;3.20;;
51006;SDS011;37034;47.886;-3.904;2024-03-08T02:35:30;6.13;;;3.13;;
51006;SDS011;37034;47.886;-3.904;2024-03-08T02:37:55;7.07;;;3.00;;
51006;SDS011;37034;47.886;-3.904;2024-03-08T02:40:21;9.33;;;3.27;;
51006;SDS011;37034;47.886;-3.904;2024-03-08T02:42:47;9.80;;;3.40;;
51006;SDS011;37034;47.886;-3.904;2024-03-08T02:45:13;6.93;;;2.87;;
51006;SDS011;37034;47.886;-3.904;2024-03-08T02:47:38;7.53;;;3.58;;
51006;SDS011;37034;47.886;-3.904;2024-03-08T02:50:04;8.32;;;3.40;;
51006;SDS011;37034;47.886;-3.904;2024-03-08T02:52:33;6.13;;;2.83;;
51006;SDS011;37034;47.886;-3.904;2024-03-08T02:54:59;8.15;;;3.45;;
51006;SDS011;37034;47.886;-3.904;2024-03-08T02:57:25;7.07;;;2.73;;
51006;SDS011;37034;47.886;-3.904;2024-03-08T02:59:50;7.23;;;3.23;;
51006;SDS011;37034;47.886;-3.904;2024-03-08T03:02:16;5.97;;;3.30;;
51006;SDS011;37034;47.886;-3.904;2024-03-08T03:04:42;6.50;;;3.50;;
51006;SDS011;37034;47.886;-3.904;2024-03-08T03:07:08;7.72;;;3.40;;
51006;SDS011;37034;47.886;-3.904;2024-03-08T03:09:33;6.70;;;3.20;;
51006;SDS011;37034;47.886;-3.904;2024-03-08T03:12:00;5.78;;;3.05;;
51006;SDS011;37034;47.886;-3.904;2024-03-08T03:14:25;4.73;;;2.70;;
51006;SDS011;37034;47.886;-3.904;2024-03-08T03:16:52;7.18;;;3.17;;
51006;SDS011;37034;47.886;-3.904;2024-03-08T03:19:17;7.77;;;3.30;;
51006;SDS011;37034;47.886;-3.904;2024-03-08T03:21:43;12.13;;;4.17;;
51006;SDS011;37034;47.886;-3.904;2024-03-08T03:24:09;6.55;;;3.63;;
51006;SDS011;37034;47.886;-3.904;2024-03-08T03:26:38;8.60;;;3.23;;
51006;SDS011;37034;47.886;-3.904;2024-03-08T03:29:07;5.13;;;3.03;;
51006;SDS011;37034;47.886;-3.904;2024-03-08T03:31:33;8.30;;;4.00;;
51006;SDS011;37034;47.886;-3.904;2024-03-08T03:33:59;6.90;;;3.30;;
51006;SDS011;37034;47.886;-3.904;2024-03-08T03:36:28;9.00;;;4.03;;
51006;SDS011;37034;47.886;-3.904;2024-03-08T03:38:58;8.25;;;3.95;;
51006;SDS011;37034;47.886;-3.904;2024-03-08T03:41:38;5.95;;;3.20;;
51006;SDS011;37034;47.886;-3.904;2024-03-08T03:44:04;6.07;;;3.50;;
51006;SDS011;37034;47.886;-3.904;2024-03-08T03:46:33;6.45;;;3.42;;
51006;SDS011;37034;47.886;-3.904;2024-03-08T03:48:59;6.87;;;3.77;;
51006;SDS011;37034;47.886;-3.904;2024-03-08T03:51:25;9.40;;;3.37;;
51006;SDS011;37034;47.886;-3.904;2024-03-08T03:53:51;8.43;;;3.47;;
51006;SDS011;37034;47.886;-3.904;2024-03-08T03:56:18;7.72;;;3.47;;
51006;SDS011;37034;47.886;-3.904;2024-03-08T03:58:44;8.63;;;3.60;;
51006;SDS011;37034;47.886;-3.904;2024-03-08T04:01:09;7.00;;;2.67;;
51006;SDS011;37034;47.886;-3.904;2024-03-08T04:03:35;9.07;;;3.80;;
51006;SDS011;37034;47.886;-3.904;2024-03-08T04:06:02;6.85;;;3.60;;
51006;SDS011;37034;47.886;-3.904;2024-03-08T04:08:30;7.15;;;3.20;;
51006;SDS011;37034;47.886;-3.904;2024-03-08T04:10:59;7.78;;;3.58;;
51006;SDS011;37034;47.886;-3.904;2024-03-08T04:13:25;7.47;;;3.35;;
51006;SDS011;37034;47.886;-3.904;2024-03-08T04:15:51;9.55;;;3.80;;
51006;SDS011;37034;47.886;-3.904;2024-03-08T04:18:17;8.03;;;3.63;;
51006;SDS011;37034;47.886;-3.904;2024-03-08T04:20:44;6.85;;;3.45;;
51006;SDS011;37034;47.886;-3.904;2024-03-08T04:23:09;6.37;;;3.67;;
51006;SDS011;37034;47.886;-3.904;2024-03-08T04:25:35;9.43;;;4.10;;
51006;SDS011;37034;47.886;-3.904;2024-03-08T04:28:01;6.43;;;3.60;;
51006;SDS011;37034;47.886;-3.904;2024-03-08T04:30:26;6.17;;;3.53;;
51006;SDS011;37034;47.886;-3.904;2024-03-08T04:35:19;7.72;;;3.88;;
51006;SDS011;37034;47.886;-3.904;2024-03-08T04:37:45;7.05;;;3.63;;
51006;SDS011;37034;47.886;-3.904;2024-03-08T04:40:11;6.95;;;3.72;;
51006;SDS011;37034;47.886;-3.904;2024-03-08T04:42:36;10.00;;;4.47;;
51006;SDS011;37034;47.886;-3.904;2024-03-08T04:45:04;10.68;;;3.63;;
51006;SDS011;37034;47.886;-3.904;2024-03-08T04:47:30;6.68;;;3.70;;
51006;SDS011;37034;47.886;-3.904;2024-03-08T04:49:56;7.60;;;3.67;;
51006;SDS011;37034;47.886;-3.904;2024-03-08T04:52:23;8.00;;;3.85;;
51006;SDS011;37034;47.886;-3.904;2024-03-08T04:54:49;4.40;;;2.33;;
51006;SDS011;37034;47.886;-3.904;2024-03-08T04:57:14;6.10;;;3.20;;
51006;SDS011;37034;47.886;-3.904;2024-03-08T04:59:43;6.35;;;3.70;;
51006;SDS011;37034;47.886;-3.904;2024-03-08T05:02:08;9.07;;;3.60;;
51006;SDS011;37034;47.886;-3.904;2024-03-08T05:04:34;8.10;;;4.07;;
51006;SDS011;37034;47.886;-3.904;2024-03-08T05:07:00;7.70;;;3.60;;
51006;SDS011;37034;47.886;-3.904;2024-03-08T05:09:27;7.93;;;3.83;;
51006;SDS011;37034;47.886;-3.904;2024-03-08T05:11:56;9.13;;;4.20;;
51006;SDS011;37034;47.886;-3.904;2024-03-08T05:14:24;8.70;;;3.97;;
51006;SDS011;37034;47.886;-3.904;2024-03-08T05:16:50;12.70;;;3.95;;
51006;SDS011;37034;47.886;-3.904;2024-03-08T05:19:16;7.20;;;4.10;;
51006;SDS011;37034;47.886;-3.904;2024-03-08T05:21:43;7.00;;;3.85;;
51006;SDS011;37034;47.886;-3.904;2024-03-08T05:24:09;8.48;;;3.78;;
51006;SDS011;37034;47.886;-3.904;2024-03-08T05:26:35;8.82;;;4.30;;
51006;SDS011;37034;47.886;-3.904;2024-03-08T05:29:02;9.40;;;4.35;;
51006;SDS011;37034;47.886;-3.904;2024-03-08T05:31:28;7.47;;;4.40;;
51006;SDS011;37034;47.886;-3.904;2024-03-08T05:33:56;10.57;;;4.70;;
51006;SDS011;37034;47.886;-3.904;2024-03-08T05:36:21;9.33;;;3.80;;
51006;SDS011;37034;47.886;-3.904;2024-03-08T05:38:47;5.80;;;3.10;;
51006;SDS011;37034;47.886;-3.904;2024-03-08T05:41:15;9.40;;;4.20;;
51006;SDS011;37034;47.886;-3.904;2024-03-08T05:43:42;10.93;;;4.47;;
51006;SDS011;37034;47.886;-3.904;2024-03-08T05:46:08;8.40;;;4.18;;
51006;SDS011;37034;47.886;-3.904;2024-03-08T05:48:36;8.25;;;3.97;;
51006;SDS011;37034;47.886;-3.904;2024-03-08T05:51:02;9.20;;;4.47;;
51006;SDS011;37034;47.886;-3.904;2024-03-08T05:53:28;8.10;;;4.00;;
51006;SDS011;37034;47.886;-3.904;2024-03-08T05:55:57;7.95;;;4.65;;
51006;SDS011;37034;47.886;-3.904;2024-03-08T05:58:24;7.93;;;4.68;;
51006;SDS011;37034;47.886;-3.904;2024-03-08T06:00:49;11.15;;;4.57;;
51006;SDS011;37034;47.886;-3.904;2024-03-08T06:03:15;11.00;;;4.63;;
51006;SDS011;37034;47.886;-3.904;2024-03-08T06:05:41;10.17;;;4.73;;
51006;SDS011;37034;47.886;-3.904;2024-03-08T06:08:07;8.73;;;4.63;;
51006;SDS011;37034;47.886;-3.904;2024-03-08T06:10:33;9.35;;;4.32;;
51006;SDS011;37034;47.886;-3.904;2024-03-08T06:12:58;8.98;;;4.80;;
51006;SDS011;37034;47.886;-3.904;2024-03-08T06:15:25;13.18;;;4.65;;
51006;SDS011;37034;47.886;-3.904;2024-03-08T06:17:50;9.00;;;4.53;;
51006;SDS011;37034;47.886;-3.904;2024-03-08T06:20:17;9.35;;;4.65;;
51006;SDS011;37034;47.886;-3.904;2024-03-08T06:22:43;8.57;;;4.47;;
51006;SDS011;37034;47.886;-3.904;2024-03-08T06:25:10;9.77;;;4.32;;
51006;SDS011;37034;47.886;-3.904;2024-03-08T06:27:40;9.32;;;4.82;;
51006;SDS011;37034;47.886;-3.904;2024-03-08T06:30:07;9.50;;;4.82;;
51006;SDS011;37034;47.886;-3.904;2024-03-08T06:32:35;9.30;;;4.50;;
51006;SDS011;37034;47.886;-3.904;2024-03-08T06:35:04;8.10;;;4.00;;
51006;SDS011;37034;47.886;-3.904;2024-03-08T06:37:34;7.72;;;4.07;;
51006;SDS011;37034;47.886;-3.904;2024-03-08T06:40:00;11.90;;;4.60;;
51006;SDS011;37034;47.886;-3.904;2024-03-08T06:44:53;8.15;;;4.05;;
51006;SDS011;37034;47.886;-3.904;2024-03-08T06:47:21;9.05;;;4.32;;
51006;SDS011;37034;47.886;-3.904;2024-03-08T06:49:50;7.47;;;4.10;;
51006;SDS011;37034;47.886;-3.904;2024-03-08T06:52:17;9.95;;;4.10;;
51006;SDS011;37034;47.886;-3.904;2024-03-08T06:54:42;14.07;;;4.47;;
51006;SDS011;37034;47.886;-3.904;2024-03-08T06:57:08;7.87;;;3.73;;
51006;SDS011;37034;47.886;-3.904;2024-03-08T06:59:35;8.63;;;4.20;;
51006;SDS011;37034;47.886;-3.904;2024-03-08T07:02:01;7.80;;;4.43;;
51006;SDS011;37034;47.886;-3.904;2024-03-08T07:04:27;11.32;;;4.22;;
51006;SDS011;37034;47.886;-3.904;2024-03-08T07:06:54;9.82;;;4.38;;
51006;SDS011;37034;47.886;-3.904;2024-03-08T07:09:23;9.40;;;4.05;;
51006;SDS011;37034;47.886;-3.904;2024-03-08T07:11:49;7.40;;;3.47;;
51006;SDS011;37034;47.886;-3.904;2024-03-08T07:14:21;9.25;;;4.00;;
51006;SDS011;37034;47.886;-3.904;2024-03-08T07:16:49;8.50;;;3.83;;
51006;SDS011;37034;47.886;-3.904;2024-03-08T07:21:45;8.88;;;3.65;;
51006;SDS011;37034;47.886;-3.904;2024-03-08T07:24:12;7.10;;;3.67;;
51006;SDS011;37034;47.886;-3.904;2024-03-08T07:26:47;7.35;;;3.40;;
51006;SDS011;37034;47.886;-3.904;2024-03-08T07:29:17;10.43;;;5.35;;
51006;SDS011;37034;47.886;-3.904;2024-03-08T07:31:43;7.68;;;3.55;;
51006;SDS011;37034;47.886;-3.904;2024-03-08T07:34:27;7.82;;;3.40;;
51006;SDS011;37034;47.886;-3.904;2024-03-08T07:36:57;7.07;;;3.45;;
51006;SDS011;37034;47.886;-3.904;2024-03-08T07:39:23;7.07;;;2.45;;
51006;SDS011;37034;47.886;-3.904;2024-03-08T07:41:48;9.23;;;3.83;;
51006;SDS011;37034;47.886;-3.904;2024-03-08T07:44:17;9.00;;;3.97;;
51006;SDS011;37034;47.886;-3.904;2024-03-08T07:46:43;11.38;;;3.80;;
51006;SDS011;37034;47.886;-3.904;2024-03-08T07:49:09;6.93;;;3.42;;
51006;SDS011;37034;47.886;-3.904;2024-03-08T07:51:37;8.32;;;3.15;;
51006;SDS011;37034;47.886;-3.904;2024-03-08T07:54:03;6.53;;;3.72;;
51006;SDS011;37034;47.886;-3.904;2024-03-08T07:56:29;7.35;;;3.58;;
51006;SDS011;37034;47.886;-3.904;2024-03-08T07:58:55;7.43;;;3.17;;
51006;SDS011;37034;47.886;-3.904;2024-03-08T08:01:21;6.18;;;2.95;;
51006;SDS011;37034;47.886;-3.904;2024-03-08T08:03:47;6.30;;;3.45;;
51006;SDS011;37034;47.886;-3.904;2024-03-08T08:06:16;11.02;;;3.28;;
51006;SDS011;37034;47.886;-3.904;2024-03-08T08:08:42;7.90;;;3.50;;
51006;SDS011;37034;47.886;-3.904;2024-03-08T08:11:08;8.38;;;3.50;;
51006;SDS011;37034;47.886;-3.904;2024-03-08T08:13:34;8.10;;;3.47;;
51006;SDS011;37034;47.886;-3.904;2024-03-08T08:16:01;7.53;;;3.38;;
51006;SDS011;37034;47.886;-3.904;2024-03-08T08:18:27;8.80;;;3.70;;
51006;SDS011;37034;47.886;-3.904;2024-03-08T08:23:20;10.75;;;3.08;;
51006;SDS011;37034;47.886;-3.904;2024-03-08T08:25:46;7.70;;;3.40;;
51006;SDS011;37034;47.886;-3.904;2024-03-08T08:28:15;8.02;;;3.38;;
51006;SDS011;37034;47.886;-3.904;2024-03-08T08:30:42;10.20;;;3.85;;
51006;SDS011;37034;47.886;-3.904;2024-03-08T08:33:08;12.75;;;3.50;;
51006;SDS011;37034;47.886;-3.904;2024-03-08T08:35:35;12.05;;;4.07;;
51006;SDS011;37034;47.886;-3.904;2024-03-08T08:38:02;8.55;;;3.38;;
51006;SDS011;37034;47.886;-3.904;2024-03-08T08:40:28;9.75;;;4.10;;
51006;SDS011;37034;47.886;-3.904;2024-03-08T08:42:56;11.02;;;3.65;;
51006;SDS011;37034;47.886;-3.904;2024-03-08T08:45:25;7.72;;;3.72;;
51006;SDS011;37034;47.886;-3.904;2024-03-08T08:47:51;7.30;;;3.42;;
51006;SDS011;37034;47.886;-3.904;2024-03-08T08:50:17;10.10;;;4.38;;
51006;SDS011;37034;47.886;-3.904;2024-03-08T08:52:48;7.22;;;3.38;;
51006;SDS011;37034;47.886;-3.904;2024-03-08T08:55:14;7.97;;;3.95;;
51006;SDS011;37034;47.886;-3.904;2024-03-08T08:57:40;8.43;;;4.15;;
51006;SDS011;37034;47.886;-3.904;2024-03-08T09:00:06;8.63;;;3.58;;
51006;SDS011;37034;47.886;-3.904;2024-03-08T09:02:39;7.75;;;3.75;;
51006;SDS011;37034;47.886;-3.904;2024-03-08T09:05:06;9.25;;;3.42;;
51006;SDS011;37034;47.886;-3.904;2024-03-08T09:07:33;7.20;;;3.40;;
51006;SDS011;37034;47.886;-3.904;2024-03-08T09:09:59;9.57;;;3.60;;
51006;SDS011;37034;47.886;-3.904;2024-03-08T09:12:25;8.32;;;3.15;;
51006;SDS011;37034;47.886;-3.904;2024-03-08T09:14:51;8.75;;;3.53;;
51006;SDS011;37034;47.886;-3.904;2024-03-08T09:17:17;8.63;;;3.97;;
51006;SDS011;37034;47.886;-3.904;2024-03-08T09:19:46;7.65;;;3.10;;
51006;SDS011;37034;47.886;-3.904;2024-03-08T09:22:12;7.32;;;3.35;;
51006;SDS011;37034;47.886;-3.904;2024-03-08T09:24:38;7.38;;;3.53;;
51006;SDS011;37034;47.886;-3.904;2024-03-08T09:27:04;9.48;;;2.92;;
51006;SDS011;37034;47.886;-3.904;2024-03-08T09:29:30;9.70;;;3.42;;
51006;SDS011;37034;47.886;-3.904;2024-03-08T09:31:56;7.30;;;3.17;;
51006;SDS011;37034;47.886;-3.904;2024-03-08T09:34:21;10.13;;;3.25;;
51006;SDS011;37034;47.886;-3.904;2024-03-08T09:36:48;10.40;;;3.03;;
51006;SDS011;37034;47.886;-3.904;2024-03-08T09:39:15;7.90;;;3.40;;
51006;SDS011;37034;47.886;-3.904;2024-03-08T09:41:46;7.45;;;3.58;;
51006;SDS011;37034;47.886;-3.904;2024-03-08T09:44:18;8.10;;;3.50;;
51006;SDS011;37034;47.886;-3.904;2024-03-08T09:46:45;11.80;;;3.65;;
51006;SDS011;37034;47.886;-3.904;2024-03-08T09:49:16;9.82;;;3.20;;
51006;SDS011;37034;47.886;-3.904;2024-03-08T09:51:42;7.38;;;3.80;;
51006;SDS011;37034;47.886;-3.904;2024-03-08T09:54:07;9.37;;;2.90;;
51006;SDS011;37034;47.886;-3.904;2024-03-08T09:56:34;10.43;;;3.47;;
51006;SDS011;37034;47.886;-3.904;2024-03-08T09:59:01;9.60;;;3.50;;
51006;SDS011;37034;47.886;-3.904;2024-03-08T10:01:36;8.00;;;3.25;;
51006;SDS011;37034;47.886;-3.904;2024-03-08T10:04:03;8.45;;;2.95;;
51006;SDS011;37034;47.886;-3.904;2024-03-08T10:06:29;8.20;;;3.00;;
51006;SDS011;37034;47.886;-3.904;2024-03-08T10:08:56;10.55;;;3.25;;
51006;SDS011;37034;47.886;-3.904;2024-03-08T10:11:22;10.73;;;2.78;;
51006;SDS011;37034;47.886;-3.904;2024-03-08T10:13:49;8.43;;;3.33;;
51006;SDS011;37034;47.886;-3.904;2024-03-08T10:16:15;6.45;;;2.90;;
51006;SDS011;37034;47.886;-3.904;2024-03-08T10:18:42;9.55;;;3.80;;
51006;SDS011;37034;47.886;-3.904;2024-03-08T10:21:10;6.97;;;2.75;;
51006;SDS011;37034;47.886;-3.904;2024-03-08T10:23:39;8.52;;;3.25;;
51006;SDS011;37034;47.886;-3.904;2024-03-08T10:28:44;8.05;;;3.40;;
51006;SDS011;37034;47.886;-3.904;2024-03-08T10:31:12;7.90;;;3.08;;
51006;SDS011;37034;47.886;-3.904;2024-03-08T10:33:40;10.32;;;2.85;;
51006;SDS011;37034;47.886;-3.904;2024-03-08T10:36:09;7.80;;;3.25;;
51006;SDS011;37034;47.886;-3.904;2024-03-08T10:38:37;12.05;;;3.03;;
51006;SDS011;37034;47.886;-3.904;2024-03-08T10:41:07;9.75;;;3.60;;
51006;SDS011;37034;47.886;-3.904;2024-03-08T10:49:16;11.52;;;3.03;;
51006;SDS011;37034;47.886;-3.904;2024-03-08T10:51:44;9.73;;;2.72;;
51006;SDS011;37034;47.886;-3.904;2024-03-08T10:54:10;11.52;;;2.70;;
51006;SDS011;37034;47.886;-3.904;2024-03-08T10:56:37;6.97;;;2.63;;
51006;SDS011;37034;47.886;-3.904;2024-03-08T10:59:05;9.73;;;2.85;;
51006;SDS011;37034;47.886;-3.904;2024-03-08T11:01:33;13.02;;;3.00;;
51006;SDS011;37034;47.886;-3.904;2024-03-08T11:03:59;11.03;;;2.87;;
51006;SDS011;37034;47.886;-3.904;2024-03-08T11:06:30;7.03;;;2.30;;
51006;SDS011;37034;47.886;-3.904;2024-03-08T11:09:02;9.25;;;3.03;;
51006;SDS011;37034;47.886;-3.904;2024-03-08T11:11:38;11.05;;;2.92;;
51006;SDS011;37034;47.886;-3.904;2024-03-08T11:14:08;12.65;;;2.60;;
51006;SDS011;37034;47.886;-3.904;2024-03-08T11:17:09;7.72;;;2.75;;
51006;SDS011;37034;47.886;-3.904;2024-03-08T11:19:34;6.77;;;2.47;;
51006;SDS011;37034;47.886;-3.904;2024-03-08T11:22:01;11.77;;;2.73;;
51006;SDS011;37034;47.886;-3.904;2024-03-08T11:24:33;7.85;;;2.55;;
51006;SDS011;37034;47.886;-3.904;2024-03-08T11:27:03;10.23;;;2.92;;
51006;SDS011;37034;47.886;-3.904;2024-03-08T11:32:14;11.05;;;2.05;;
51006;SDS011;37034;47.886;-3.904;2024-03-08T11:34:42;8.00;;;2.25;;
51006;SDS011;37034;47.886;-3.904;2024-03-08T11:37:13;6.57;;;1.80;;
51006;SDS011;37034;47.886;-3.904;2024-03-08T11:39:40;9.02;;;2.03;;
51006;SDS011;37034;47.886;-3.904;2024-03-08T11:42:12;12.40;;;2.40;;
51006;SDS011;37034;47.886;-3.904;2024-03-08T11:44:38;8.95;;;1.75;;
51006;SDS011;37034;47.886;-3.904;2024-03-08T11:47:13;9.13;;;2.17;;
51006;SDS011;37034;47.886;-3.904;2024-03-08T11:49:39;16.73;;;2.28;;
51006;SDS011;37034;47.886;-3.904;2024-03-08T11:52:13;10.45;;;2.67;;
51006;SDS011;37034;47.886;-3.904;2024-03-08T11:54:47;14.30;;;2.60;;
51006;SDS011;37034;47.886;-3.904;2024-03-08T11:57:17;12.23;;;2.63;;
51006;SDS011;37034;47.886;-3.904;2024-03-08T11:59:50;13.45;;;2.72;;
51006;SDS011;37034;47.886;-3.904;2024-03-08T12:02:16;10.90;;;2.22;;
51006;SDS011;37034;47.886;-3.904;2024-03-08T12:04:44;11.85;;;2.47;;
51006;SDS011;37034;47.886;-3.904;2024-03-08T12:07:11;12.57;;;2.63;;
51006;SDS011;37034;47.886;-3.904;2024-03-08T12:09:39;14.32;;;3.42;;
51006;SDS011;37034;47.886;-3.904;2024-03-08T12:12:11;9.98;;;2.22;;
51006;SDS011;37034;47.886;-3.904;2024-03-08T12:14:37;14.07;;;2.80;;
51006;SDS011;37034;47.886;-3.904;2024-03-08T12:17:03;12.85;;;2.72;;
51006;SDS011;37034;47.886;-3.904;2024-03-08T12:19:30;18.75;;;2.63;;
51006;SDS011;37034;47.886;-3.904;2024-03-08T12:21:56;11.33;;;2.17;;
51006;SDS011;37034;47.886;-3.904;2024-03-08T12:24:21;15.40;;;2.80;;
51006;SDS011;37034;47.886;-3.904;2024-03-08T12:26:48;10.98;;;2.28;;
51006;SDS011;37034;47.886;-3.904;2024-03-08T12:29:18;15.32;;;3.60;;
51006;SDS011;37034;47.886;-3.904;2024-03-08T12:31:48;16.67;;;2.72;;
51006;SDS011;37034;47.886;-3.904;2024-03-08T12:34:20;13.15;;;2.58;;
51006;SDS011;37034;47.886;-3.904;2024-03-08T12:36:49;13.90;;;2.72;;
51006;SDS011;37034;47.886;-3.904;2024-03-08T12:39:19;12.75;;;2.45;;
51006;SDS011;37034;47.886;-3.904;2024-03-08T12:41:51;15.07;;;3.10;;
51006;SDS011;37034;47.886;-3.904;2024-03-08T12:44:24;13.85;;;3.20;;
51006;SDS011;37034;47.886;-3.904;2024-03-08T12:46:51;17.20;;;3.28;;
51006;SDS011;37034;47.886;-3.904;2024-03-08T12:49:18;17.65;;;2.85;;
51006;SDS011;37034;47.886;-3.904;2024-03-08T12:51:47;15.57;;;2.50;;
51006;SDS011;37034;47.886;-3.904;2024-03-08T12:54:13;15.38;;;3.03;;
51006;SDS011;37034;47.886;-3.904;2024-03-08T12:56:38;10.57;;;2.60;;
51006;SDS011;37034;47.886;-3.904;2024-03-08T12:59:05;13.98;;;2.65;;
51006;SDS011;37034;47.886;-3.904;2024-03-08T13:01:38;16.63;;;2.67;;
51006;SDS011;37034;47.886;-3.904;2024-03-08T13:04:04;16.00;;;2.60;;
51006;SDS011;37034;47.886;-3.904;2024-03-08T13:06:31;11.60;;;2.30;;
51006;SDS011;37034;47.886;-3.904;2024-03-08T13:08:58;16.10;;;2.65;;
51006;SDS011;37034;47.886;-3.904;2024-03-08T13:11:24;8.40;;;2.58;;
51006;SDS011;37034;47.886;-3.904;2024-03-08T13:13:50;15.85;;;2.55;;
51006;SDS011;37034;47.886;-3.904;2024-03-08T13:16:17;12.40;;;2.10;;
51006;SDS011;37034;47.886;-3.904;2024-03-08T13:18:44;20.00;;;2.45;;
51006;SDS011;37034;47.886;-3.904;2024-03-08T13:21:11;13.10;;;2.33;;
51006;SDS011;37034;47.886;-3.904;2024-03-08T13:23:39;16.20;;;2.05;;
51006;SDS011;37034;47.886;-3.904;2024-03-08T13:26:06;21.58;;;3.03;;
51006;SDS011;37034;47.886;-3.904;2024-03-08T13:31:02;15.05;;;2.40;;
51006;SDS011;37034;47.886;-3.904;2024-03-08T13:33:37;15.63;;;2.67;;
51006;SDS011;37034;47.886;-3.904;2024-03-08T13:36:11;17.27;;;2.53;;
51006;SDS011;37034;47.886;-3.904;2024-03-08T13:38:46;15.18;;;2.72;;
51006;SDS011;37034;47.886;-3.904;2024-03-08T13:41:12;16.90;;;3.13;;
51006;SDS011;37034;47.886;-3.904;2024-03-08T13:43:42;16.38;;;2.17;;
51006;SDS011;37034;47.886;-3.904;2024-03-08T13:46:10;17.23;;;1.88;;
51006;SDS011;37034;47.886;-3.904;2024-03-08T13:48:36;20.40;;;2.47;;
51006;SDS011;37034;47.886;-3.904;2024-03-08T13:51:02;15.90;;;2.45;;
51006;SDS011;37034;47.886;-3.904;2024-03-08T13:53:31;14.00;;;2.40;;
51006;SDS011;37034;47.886;-3.904;2024-03-08T13:55:58;15.15;;;2.28;;
51006;SDS011;37034;47.886;-3.904;2024-03-08T13:58:25;12.02;;;2.22;;
51006;SDS011;37034;47.886;-3.904;2024-03-08T14:00:51;16.90;;;2.40;;
51006;SDS011;37034;47.886;-3.904;2024-03-08T14:03:17;17.97;;;2.77;;
51006;SDS011;37034;47.886;-3.904;2024-03-08T14:05:43;15.70;;;2.55;;
51006;SDS011;37034;47.886;-3.904;2024-03-08T14:08:10;16.55;;;2.47;;
51006;SDS011;37034;47.886;-3.904;2024-03-08T14:10:37;14.55;;;2.70;;
51006;SDS011;37034;47.886;-3.904;2024-03-08T14:13:03;14.23;;;3.30;;
51006;SDS011;37034;47.886;-3.904;2024-03-08T14:15:34;13.05;;;2.38;;
51006;SDS011;37034;47.886;-3.904;2024-03-08T14:18:00;11.60;;;2.55;;
51006;SDS011;37034;47.886;-3.904;2024-03-08T14:20:26;13.95;;;2.35;;
51006;SDS011;37034;47.886;-3.904;2024-03-08T14:22:53;16.48;;;2.70;;
51006;SDS011;37034;47.886;-3.904;2024-03-08T14:25:22;14.45;;;2.50;;
51006;SDS011;37034;47.886;-3.904;2024-03-08T14:27:51;20.23;;;2.67;;
51006;SDS011;37034;47.886;-3.904;2024-03-08T14:30:18;13.00;;;2.80;;
51006;SDS011;37034;47.886;-3.904;2024-03-08T14:33:04;16.52;;;2.63;;
51006;SDS011;37034;47.886;-3.904;2024-03-08T14:35:36;13.70;;;2.03;;
51006;SDS011;37034;47.886;-3.904;2024-03-08T14:38:05;17.38;;;3.08;;
51006;SDS011;37034;47.886;-3.904;2024-03-08T14:40:35;15.15;;;2.40;;
51006;SDS011;37034;47.886;-3.904;2024-03-08T14:43:03;15.10;;;2.30;;
51006;SDS011;37034;47.886;-3.904;2024-03-08T14:45:29;18.20;;;2.75;;
51006;SDS011;37034;47.886;-3.904;2024-03-08T14:47:56;14.65;;;2.95;;
51006;SDS011;37034;47.886;-3.904;2024-03-08T14:52:48;14.93;;;2.15;;
51006;SDS011;37034;47.886;-3.904;2024-03-08T14:55:14;12.30;;;2.55;;
51006;SDS011;37034;47.886;-3.904;2024-03-08T14:57:41;17.85;;;2.58;;
51006;SDS011;37034;47.886;-3.904;2024-03-08T15:00:07;17.70;;;2.95;;
51006;SDS011;37034;47.886;-3.904;2024-03-08T15:02:41;12.80;;;2.38;;